createdAt,value
2018-12-16T00:01:04.847Z,12.03
2018-12-16T00:03:35.210Z,11.83
2018-12-16T00:06:06.144Z,11.95
2018-12-16T00:08:37.261Z,12.50
2018-12-16T00:11:08.377Z,11.93
2018-12-16T00:13:39.302Z,12.00
2018-12-16T00:16:08.195Z,12.95
2018-12-16T00:18:39.466Z,10.98
2018-12-16T00:21:10.389Z,12.30
2018-12-16T00:23:39.445Z,12.58
2018-12-16T00:26:10.403Z,12.20
2018-12-16T00:28:41.673Z,12.07
2018-12-16T00:31:10.491Z,11.15
2018-12-16T00:33:41.491Z,12.00
2018-12-16T00:36:12.696Z,12.75
2018-12-16T00:38:42.015Z,11.78
2018-12-16T00:41:13.142Z,11.53
2018-12-16T00:43:47.162Z,11.45
2018-12-16T00:46:15.551Z,11.57
2018-12-16T00:48:46.829Z,11.90
2018-12-16T00:51:17.929Z,12.03
2018-12-16T00:53:48.467Z,11.25
2018-12-16T00:56:19.271Z,13.10
2018-12-16T00:58:50.457Z,11.75
2018-12-16T01:01:21.063Z,12.18
2018-12-16T01:03:51.830Z,12.18
2018-12-16T01:06:20.726Z,12.88
2018-12-16T01:08:49.832Z,13.35
2018-12-16T01:11:20.936Z,11.85
2018-12-16T01:13:55.013Z,12.60
2018-12-16T01:16:29.052Z,12.55
2018-12-16T01:18:58.240Z,13.48
2018-12-16T01:21:29.446Z,12.50
2018-12-16T01:23:58.423Z,11.88
2018-12-16T01:26:27.608Z,12.85
2018-12-16T01:28:58.552Z,12.88
2018-12-16T01:31:29.581Z,11.90
2018-12-16T01:34:03.432Z,11.57
2018-12-16T01:36:33.932Z,11.00
2018-12-16T01:39:05.166Z,11.28
2018-12-16T01:41:35.563Z,12.55
2018-12-16T01:44:06.857Z,11.35
2018-12-16T01:46:35.839Z,13.10
2018-12-16T01:49:06.984Z,12.50
2018-12-16T01:51:36.061Z,12.10
2018-12-16T01:54:05.343Z,11.10
2018-12-16T01:56:39.317Z,11.83
2018-12-16T01:59:24.721Z,12.63
2018-12-16T02:01:56.454Z,11.35
2018-12-16T02:04:27.686Z,11.12
2018-12-16T02:06:58.858Z,12.23
2018-12-16T02:09:29.979Z,10.65
2018-12-16T02:12:03.823Z,11.43
2018-12-16T02:14:37.817Z,11.83
2018-12-16T02:17:09.678Z,11.05
2018-12-16T02:19:43.877Z,10.68
2018-12-16T02:22:15.107Z,11.55
2018-12-16T02:24:49.141Z,10.93
2018-12-16T02:27:23.042Z,10.88
2018-12-16T02:29:56.233Z,10.93
2018-12-16T02:32:25.584Z,12.20
2018-12-16T02:35:03.545Z,12.23
2018-12-16T02:37:32.440Z,12.35
2018-12-16T02:40:03.252Z,11.50
2018-12-16T02:42:34.034Z,11.88
2018-12-16T02:45:05.193Z,11.50
2018-12-16T02:47:36.298Z,11.12
2018-12-16T02:50:07.342Z,8.98
2018-12-16T02:52:38.395Z,12.93
2018-12-16T02:55:09.243Z,10.68
2018-12-16T02:57:38.384Z,9.78
2018-12-16T03:00:09.599Z,12.20
2018-12-16T03:02:41.042Z,11.22
2018-12-16T03:05:11.704Z,11.78
2018-12-16T03:07:42.679Z,10.93
2018-12-16T03:10:13.645Z,11.80
2018-12-16T03:12:47.467Z,11.88
2018-12-16T03:15:18.654Z,12.40
2018-12-16T03:17:49.952Z,9.45
2018-12-16T03:20:21.086Z,10.38
2018-12-16T03:22:52.251Z,13.05
2018-12-16T03:25:25.696Z,11.70
2018-12-16T03:27:54.816Z,10.60
2018-12-16T03:30:25.817Z,11.43
2018-12-16T03:32:59.452Z,12.07
2018-12-16T03:35:28.839Z,12.25
2018-12-16T03:38:02.024Z,13.08
2018-12-16T03:40:33.517Z,12.58
2018-12-16T03:43:07.587Z,12.78
2018-12-16T03:45:49.183Z,12.75
2018-12-16T03:48:20.096Z,11.95
2018-12-16T03:50:49.563Z,14.53
2018-12-16T03:53:20.668Z,12.90
2018-12-16T03:55:51.739Z,13.10
2018-12-16T03:58:22.804Z,13.35
2018-12-16T04:00:53.962Z,14.10
2018-12-16T04:03:24.964Z,13.83
2018-12-16T04:05:55.951Z,13.45
2018-12-16T04:08:25.019Z,13.85
2018-12-16T04:10:54.258Z,14.20
2018-12-16T04:13:25.506Z,14.87
2018-12-16T04:15:56.546Z,13.48
2018-12-16T04:18:27.415Z,11.68
2018-12-16T04:21:01.063Z,14.15
2018-12-16T04:23:31.526Z,12.05
2018-12-16T04:26:02.571Z,13.03
2018-12-16T04:28:33.787Z,14.45
2018-12-16T04:31:02.654Z,13.05
2018-12-16T04:33:33.950Z,14.75
2018-12-16T04:36:05.040Z,13.62
2018-12-16T04:38:36.207Z,12.98
2018-12-16T04:41:09.878Z,13.88
2018-12-16T04:43:40.792Z,14.73
2018-12-16T04:46:11.772Z,14.50
2018-12-16T04:48:42.769Z,11.65
2018-12-16T04:51:14.082Z,13.50
2018-12-16T04:53:45.100Z,15.00
2018-12-16T04:56:20.886Z,15.25
2018-12-16T04:58:52.154Z,13.28
2018-12-16T05:01:21.394Z,14.33
2018-12-16T05:03:52.350Z,13.70
2018-12-16T05:06:30.313Z,14.15
2018-12-16T05:09:01.872Z,13.35
2018-12-16T05:11:32.582Z,15.58
2018-12-16T05:14:10.291Z,14.83
2018-12-16T05:16:41.562Z,13.88
2018-12-16T05:19:12.774Z,15.00
2018-12-16T05:21:44.070Z,13.95
2018-12-16T05:24:15.014Z,16.15
2018-12-16T05:26:45.905Z,15.18
2018-12-16T05:29:17.152Z,15.70
2018-12-16T05:31:48.220Z,16.37
2018-12-16T05:34:17.299Z,16.07
2018-12-16T05:36:54.995Z,14.90
2018-12-16T05:39:25.325Z,15.28
2018-12-16T05:41:56.655Z,15.35
2018-12-16T05:44:29.880Z,14.23
2018-12-16T05:47:03.049Z,15.98
2018-12-16T05:49:32.354Z,14.68
2018-12-16T05:52:03.545Z,16.27
2018-12-16T05:54:36.721Z,14.47
2018-12-16T05:57:05.806Z,15.45
2018-12-16T05:59:36.425Z,15.43
2018-12-16T06:02:10.482Z,14.50
2018-12-16T06:04:39.035Z,16.90
2018-12-16T06:07:10.216Z,13.75
2018-12-16T06:09:40.969Z,18.82
2018-12-16T06:12:14.576Z,16.75
2018-12-16T06:14:45.046Z,16.87
2018-12-16T06:17:16.078Z,16.60
2018-12-16T06:19:47.041Z,16.82
2018-12-16T06:22:18.055Z,15.28
2018-12-16T06:24:47.243Z,15.93
2018-12-16T06:27:18.785Z,13.98
2018-12-16T06:29:50.306Z,16.17
2018-12-16T06:32:21.396Z,15.00
2018-12-16T06:34:52.240Z,15.15
2018-12-16T06:37:23.425Z,15.10
2018-12-16T06:39:54.467Z,15.15
2018-12-16T06:42:23.488Z,15.35
2018-12-16T06:44:54.427Z,16.25
2018-12-16T06:47:25.736Z,15.63
2018-12-16T06:49:57.082Z,13.30
2018-12-16T06:52:30.586Z,12.68
2018-12-16T06:55:17.555Z,14.35
2018-12-16T06:57:48.726Z,15.23
2018-12-16T07:00:19.648Z,15.60
2018-12-16T07:02:52.674Z,13.50
2018-12-16T07:05:23.501Z,14.20
2018-12-16T07:07:54.386Z,15.23
2018-12-16T07:10:25.512Z,13.65
2018-12-16T07:12:56.781Z,15.32
2018-12-16T07:15:27.519Z,16.30
2018-12-16T07:18:02.509Z,15.55
2018-12-16T07:20:35.630Z,15.83
2018-12-16T07:23:06.493Z,15.28
2018-12-16T07:25:37.622Z,14.75
2018-12-16T07:28:08.430Z,15.78
2018-12-16T07:30:39.500Z,16.27
2018-12-16T07:33:10.420Z,16.60
2018-12-16T07:35:51.016Z,15.85
2018-12-16T07:38:22.418Z,15.83
2018-12-16T07:40:53.473Z,15.83
2018-12-16T07:43:22.134Z,15.63
2018-12-16T07:45:55.332Z,15.10
2018-12-16T07:48:26.744Z,13.08
2018-12-16T07:50:57.175Z,14.87
2018-12-16T07:53:26.150Z,16.00
2018-12-16T07:55:57.262Z,13.90
2018-12-16T07:58:31.276Z,15.20
2018-12-16T08:01:02.451Z,15.75
2018-12-16T08:03:33.823Z,16.10
2018-12-16T08:06:04.771Z,16.32
2018-12-16T08:08:35.990Z,15.88
2018-12-16T08:11:05.005Z,16.23
2018-12-16T08:13:36.089Z,15.65
2018-12-16T08:16:07.311Z,16.05
2018-12-16T08:18:38.269Z,16.82
2018-12-16T08:21:09.234Z,17.37
2018-12-16T08:23:39.604Z,17.77
2018-12-16T08:26:10.707Z,17.05
2018-12-16T08:28:44.491Z,14.45
2018-12-16T08:31:14.881Z,15.50
2018-12-16T08:33:43.932Z,17.60
2018-12-16T08:36:14.791Z,17.60
2018-12-16T08:38:45.553Z,17.07
2018-12-16T08:41:14.639Z,16.40
2018-12-16T08:43:43.863Z,16.70
2018-12-16T08:46:12.862Z,16.40
2018-12-16T08:48:44.135Z,16.20
2018-12-16T08:51:15.293Z,15.83
2018-12-16T08:53:46.109Z,15.63
2018-12-16T08:58:49.327Z,16.60
2018-12-16T09:01:20.493Z,17.10
2018-12-16T09:03:49.815Z,17.87
2018-12-16T09:06:20.707Z,17.25
2018-12-16T09:08:52.106Z,14.70
2018-12-16T09:11:32.085Z,17.27
2018-12-16T09:14:02.768Z,18.25
2018-12-16T09:16:33.830Z,17.12
2018-12-16T09:19:08.099Z,18.05
2018-12-16T09:21:39.125Z,18.40
2018-12-16T09:24:10.185Z,22.55
2018-12-16T09:26:41.036Z,36.35
2018-12-16T09:29:14.816Z,36.90
2018-12-16T09:31:43.717Z,30.52
2018-12-16T09:34:14.779Z,17.55
2018-12-16T09:36:45.869Z,17.87
2018-12-16T09:39:16.874Z,27.48
2018-12-16T09:41:47.629Z,30.85
2018-12-16T09:44:18.606Z,23.18
2018-12-16T09:46:49.900Z,16.93
2018-12-16T09:49:21.197Z,17.80
2018-12-16T09:51:56.150Z,21.48
2018-12-16T09:54:27.416Z,14.85
2018-12-16T09:56:58.237Z,18.12
2018-12-16T09:59:27.532Z,19.07
2018-12-16T10:01:58.417Z,18.10
2018-12-16T10:04:29.614Z,16.15
2018-12-16T10:07:00.592Z,17.20
2018-12-16T10:09:31.532Z,18.70
2018-12-16T10:12:05.178Z,19.50
2018-12-16T10:14:39.085Z,18.50
2018-12-16T10:17:07.673Z,20.00
2018-12-16T10:19:38.056Z,17.75
2018-12-16T10:22:09.594Z,17.95
2018-12-16T10:24:40.334Z,18.75
2018-12-16T10:27:14.098Z,18.50
2018-12-16T10:29:48.212Z,18.73
2018-12-16T10:32:18.886Z,17.02
2018-12-16T10:34:47.979Z,17.77
2018-12-16T10:37:17.256Z,17.80
2018-12-16T10:39:48.442Z,19.52
2018-12-16T10:42:23.058Z,19.40
2018-12-16T10:44:54.507Z,17.60
2018-12-16T10:47:28.636Z,18.55
2018-12-16T10:49:57.010Z,23.83
2018-12-16T10:52:28.046Z,20.62
2018-12-16T10:54:58.529Z,18.50
2018-12-16T10:57:27.333Z,19.37
2018-12-16T10:59:56.345Z,19.80
2018-12-16T11:02:30.085Z,19.70
2018-12-16T11:05:01.171Z,22.75
2018-12-16T11:07:34.877Z,20.32
2018-12-16T11:10:05.714Z,18.42
2018-12-16T11:12:36.775Z,20.60
2018-12-16T11:15:08.502Z,20.30
2018-12-16T11:17:39.278Z,19.17
2018-12-16T11:20:10.337Z,18.30
2018-12-16T11:22:41.377Z,17.25
2018-12-16T11:25:12.712Z,22.32
2018-12-16T11:27:43.552Z,20.55
2018-12-16T11:30:14.830Z,20.57
2018-12-16T11:32:44.036Z,18.25
2018-12-16T11:35:25.421Z,19.30
2018-12-16T11:37:54.183Z,18.27
2018-12-16T11:40:27.777Z,21.80
2018-12-16T11:42:57.163Z,20.45
2018-12-16T11:45:27.810Z,19.00
2018-12-16T11:47:57.129Z,18.80
2018-12-16T11:50:26.031Z,18.73
2018-12-16T11:53:01.685Z,20.23
2018-12-16T11:55:33.069Z,19.77
2018-12-16T12:00:44.865Z,21.75
2018-12-16T12:03:15.514Z,21.62
2018-12-16T12:05:46.489Z,23.15
2018-12-16T12:08:20.368Z,19.17
2018-12-16T12:10:56.365Z,22.25
2018-12-16T13:30:32.582Z,22.70
2018-12-16T13:33:03.080Z,20.95
2018-12-16T13:35:32.252Z,22.82
2018-12-16T13:38:01.301Z,23.75
2018-12-16T13:40:32.349Z,20.02
2018-12-16T13:43:01.391Z,21.30
2018-12-16T13:45:32.312Z,18.87
2018-12-16T13:48:01.084Z,20.70
2018-12-16T13:50:36.637Z,18.07
2018-12-16T13:53:11.729Z,19.65
2018-12-16T13:55:42.937Z,20.90
2018-12-16T13:58:16.834Z,20.17
2018-12-16T14:00:45.780Z,22.98
2018-12-16T14:03:14.625Z,27.45
2018-12-16T14:05:48.612Z,24.50
2018-12-16T14:08:19.599Z,20.00
2018-12-16T14:10:54.304Z,20.90
2018-12-16T14:13:25.628Z,19.70
2018-12-16T14:15:56.679Z,19.62
2018-12-16T14:18:28.040Z,20.82
2018-12-16T14:20:56.978Z,18.32
2018-12-16T14:23:27.797Z,19.32
2018-12-16T14:25:58.875Z,17.10
2018-12-16T14:28:27.816Z,18.77
2018-12-16T14:30:58.365Z,16.73
2018-12-16T14:33:27.472Z,17.40
2018-12-16T14:35:56.521Z,17.50
2018-12-16T14:38:30.561Z,16.42
2018-12-16T14:40:59.603Z,16.77
2018-12-16T14:43:30.763Z,16.82
2018-12-16T14:45:59.560Z,16.85
2018-12-16T14:48:28.566Z,16.85
2018-12-16T14:50:59.934Z,18.17
2018-12-16T14:53:40.340Z,15.88
2018-12-16T14:56:13.549Z,16.97
2018-12-16T14:58:47.467Z,16.48
2018-12-16T15:01:17.829Z,17.80
2018-12-16T15:03:49.022Z,17.00
2018-12-16T15:06:20.321Z,16.17
2018-12-16T15:08:49.245Z,17.17
2018-12-16T15:11:24.235Z,16.73
2018-12-16T15:13:53.426Z,16.45
2018-12-16T15:16:26.650Z,17.30
2018-12-16T15:18:57.132Z,15.32
2018-12-16T15:21:31.850Z,17.48
2018-12-16T15:24:03.038Z,16.45
2018-12-16T15:26:34.197Z,15.95
2018-12-16T15:29:05.350Z,16.40
2018-12-16T15:34:08.036Z,13.95
2018-12-16T15:36:39.193Z,15.45
2018-12-16T15:39:10.445Z,17.60
2018-12-16T15:41:41.685Z,16.20
2018-12-16T15:44:10.744Z,15.35
2018-12-16T15:46:48.323Z,16.48
2018-12-16T15:49:28.498Z,15.25
2018-12-16T15:52:01.683Z,15.70
2018-12-16T15:54:32.925Z,14.60
2018-12-16T15:57:07.581Z,16.80
2018-12-16T15:59:41.632Z,17.95
2018-12-16T16:02:10.832Z,17.60
2018-12-16T16:04:41.839Z,16.65
2018-12-16T16:07:12.661Z,16.27
2018-12-16T16:09:46.371Z,16.62
2018-12-16T16:12:17.684Z,16.55
2018-12-16T16:14:48.652Z,17.98
2018-12-16T16:17:19.984Z,16.32
2018-12-16T16:19:50.909Z,17.32
2018-12-16T16:22:21.337Z,16.40
2018-12-16T16:24:52.485Z,18.57
2018-12-16T16:27:22.862Z,18.23
2018-12-16T16:29:56.007Z,17.70
2018-12-16T16:32:29.764Z,20.82
2018-12-16T16:35:01.943Z,17.85
2018-12-16T16:37:32.603Z,18.90
2018-12-16T16:40:05.130Z,19.77
2018-12-16T16:42:36.108Z,16.60
2018-12-16T16:45:09.844Z,17.67
2018-12-16T16:47:39.096Z,16.40
2018-12-16T16:50:10.226Z,16.85
2018-12-16T16:52:41.303Z,17.85
2018-12-16T16:55:12.019Z,18.12
2018-12-16T16:57:43.260Z,15.55
2018-12-16T17:00:14.275Z,16.30
2018-12-16T17:02:47.942Z,16.57
2018-12-16T17:08:17.725Z,16.93
2018-12-16T17:10:51.937Z,16.40
2018-12-16T17:13:22.989Z,15.88
2018-12-16T17:15:53.929Z,17.00
2018-12-16T17:18:27.848Z,14.65
2018-12-16T17:23:55.613Z,17.62
2018-12-16T17:26:30.222Z,16.12
2018-12-16T17:29:00.817Z,16.50
2018-12-16T17:31:32.059Z,18.35
2018-12-16T17:34:09.469Z,21.45
2018-12-16T17:36:38.835Z,17.05
2018-12-16T17:39:09.619Z,16.07
2018-12-16T17:41:40.741Z,17.15
2018-12-16T17:44:11.546Z,15.75
2018-12-16T17:49:38.568Z,16.37
2018-12-16T17:52:07.729Z,16.12
2018-12-16T17:54:38.926Z,15.90
2018-12-16T17:57:10.001Z,17.07
2018-12-16T17:59:43.943Z,15.72
2018-12-16T18:02:14.753Z,14.35
2018-12-16T18:04:45.941Z,15.50
2018-12-16T18:07:14.850Z,15.25
2018-12-16T18:09:42.282Z,14.25
2018-12-16T18:12:09.896Z,17.27
2018-12-16T18:14:37.974Z,17.27
2018-12-16T18:17:06.915Z,16.70
2018-12-16T18:19:34.383Z,16.65
2018-12-16T18:22:01.916Z,17.00
2018-12-16T18:24:29.602Z,15.83
2018-12-16T18:26:57.107Z,14.87
2018-12-16T18:29:24.546Z,15.00
2018-12-16T18:31:52.023Z,16.05
2018-12-16T18:34:19.511Z,16.60
2018-12-16T18:36:47.006Z,16.55
2018-12-16T18:39:14.522Z,16.67
2018-12-16T18:41:42.179Z,14.98
2018-12-16T18:44:09.826Z,17.32
2018-12-16T18:46:37.321Z,17.65
2018-12-16T18:49:04.875Z,16.48
2018-12-16T18:51:32.406Z,15.30
2018-12-16T18:54:00.029Z,14.75
2018-12-16T18:56:27.557Z,17.37
2018-12-16T18:58:55.063Z,15.00
2018-12-16T19:01:22.607Z,14.33
2018-12-16T19:03:50.415Z,15.38
2018-12-16T19:06:17.939Z,15.13
2018-12-16T19:08:45.568Z,15.98
2018-12-16T19:11:13.151Z,16.57
2018-12-16T19:13:40.817Z,15.90
2018-12-16T19:16:08.292Z,16.30
2018-12-16T19:18:36.042Z,15.83
2018-12-16T19:21:04.066Z,15.38
2018-12-16T19:23:31.583Z,15.70
2018-12-16T19:25:59.071Z,17.25
2018-12-16T19:28:26.683Z,14.05
2018-12-16T19:30:54.356Z,17.25
2018-12-16T19:33:21.846Z,15.25
2018-12-16T19:35:49.494Z,17.50
2018-12-16T19:38:16.956Z,15.30
2018-12-16T19:40:44.474Z,15.43
2018-12-16T19:43:11.984Z,17.25
2018-12-16T19:45:42.649Z,13.40
2018-12-16T19:48:13.413Z,16.27
2018-12-16T19:50:44.447Z,16.50
2018-12-16T19:53:15.354Z,15.32
2018-12-16T19:55:44.570Z,19.20
2018-12-16T19:58:15.669Z,15.50
2018-12-16T20:00:46.796Z,16.45
2018-12-16T20:03:15.868Z,16.60
2018-12-16T20:05:52.533Z,16.12
2018-12-16T20:08:29.823Z,18.10
2018-12-16T20:10:58.266Z,16.93
2018-12-16T20:13:29.283Z,16.20
2018-12-16T20:16:04.951Z,59.27
2018-12-16T20:18:36.127Z,18.10
2018-12-16T20:21:06.890Z,17.65
2018-12-16T20:23:37.918Z,16.57
2018-12-16T20:26:09.096Z,16.97
2018-12-16T20:28:40.188Z,17.00
2018-12-16T20:31:11.441Z,16.80
2018-12-16T20:33:42.823Z,17.40
2018-12-16T20:36:14.167Z,19.07
2018-12-16T20:41:17.375Z,17.98
2018-12-16T20:43:48.564Z,15.20
2018-12-16T20:46:19.482Z,15.38
2018-12-16T20:48:48.502Z,17.05
2018-12-16T20:51:19.629Z,17.40
2018-12-16T20:53:48.869Z,15.78
2018-12-16T20:56:24.531Z,17.77
2018-12-16T20:58:57.705Z,16.48
2018-12-16T21:01:28.108Z,17.67
2018-12-16T21:03:59.336Z,17.57
2018-12-16T21:06:28.270Z,21.05
2018-12-16T21:08:59.275Z,17.25
2018-12-16T21:14:38.585Z,16.87
2018-12-16T21:17:13.514Z,17.27
2018-12-16T21:19:44.108Z,20.32
2018-12-16T21:22:15.087Z,16.82
2018-12-16T21:24:52.826Z,16.00
2018-12-16T21:30:26.010Z,15.08
2018-12-16T21:41:58.957Z,15.13
2018-12-16T21:44:32.796Z,15.80
2018-12-16T21:47:06.646Z,15.00
2018-12-16T21:49:36.003Z,15.20
2018-12-16T21:52:04.966Z,15.90
2018-12-16T21:54:36.063Z,17.77
2018-12-16T21:57:07.100Z,16.12
2018-12-16T22:02:42.039Z,16.52
2018-12-16T22:08:15.702Z,15.80
2018-12-16T22:10:46.659Z,14.85
2018-12-16T22:16:23.511Z,13.08
2018-12-16T22:18:56.801Z,14.87
2018-12-16T22:21:27.858Z,14.47
2018-12-16T22:23:55.356Z,14.25
2018-12-16T22:26:22.792Z,15.00
2018-12-16T22:28:50.230Z,14.50
2018-12-16T22:31:18.624Z,16.30
2018-12-16T22:33:46.061Z,15.20
2018-12-16T22:36:13.503Z,14.80
2018-12-16T22:38:40.951Z,14.98
2018-12-16T22:41:08.410Z,16.37
2018-12-16T22:43:35.886Z,16.35
2018-12-16T22:46:03.430Z,15.03
2018-12-16T22:48:30.875Z,13.83
2018-12-16T22:50:58.391Z,12.68
2018-12-16T22:53:25.831Z,14.80
2018-12-16T22:55:53.280Z,13.35
2018-12-16T22:58:20.716Z,13.95
2018-12-16T23:00:54.034Z,13.30
2018-12-16T23:03:21.466Z,12.40
2018-12-16T23:05:49.004Z,14.30
2018-12-16T23:08:16.440Z,14.13
2018-12-16T23:10:43.879Z,12.63
2018-12-16T23:13:11.314Z,12.63
2018-12-16T23:15:38.797Z,12.45
2018-12-16T23:18:06.270Z,14.15
2018-12-16T23:20:33.789Z,14.07
2018-12-16T23:23:01.247Z,13.30
2018-12-16T23:25:28.688Z,11.35
2018-12-16T23:27:56.119Z,13.40
2018-12-16T23:30:23.555Z,11.97
2018-12-16T23:32:56.987Z,12.60
2018-12-16T23:35:24.448Z,11.80
2018-12-16T23:37:51.871Z,11.97
2018-12-16T23:40:19.307Z,10.50
2018-12-16T23:42:46.747Z,10.72
2018-12-16T23:45:14.221Z,10.60
2018-12-16T23:47:41.699Z,10.63
2018-12-16T23:50:09.222Z,11.68
2018-12-16T23:52:36.692Z,11.57
2018-12-16T23:55:10.272Z,10.25
2018-12-16T23:57:37.713Z,12.07
